sensor_id;sensor_type;location;lat;lon;timestamp;pressure;altitude;pressure_sealevel;temperature;humidity
11099;BME280;12223;42.650;23.364;2023-04-06T00:01:18;94483.50;;;-0.14;100.00
11099;BME280;12223;42.650;23.364;2023-04-06T00:03:45;94479.94;;;-0.13;100.00
11099;BME280;12223;42.650;23.364;2023-04-06T00:06:12;94476.03;;;-0.17;100.00
11099;BME280;12223;42.650;23.364;2023-04-06T00:08:39;94474.41;;;-0.10;100.00
11099;BME280;12223;42.650;23.364;2023-04-06T00:11:06;94470.19;;;-0.11;100.00
11099;BME280;12223;42.650;23.364;2023-04-06T00:13:33;94466.94;;;-0.05;100.00
11099;BME280;12223;42.650;23.364;2023-04-06T00:16:00;94458.53;;;-0.07;100.00
11099;BME280;12223;42.650;23.364;2023-04-06T00:18:28;94470.69;;;-0.08;100.00
11099;BME280;12223;42.650;23.364;2023-04-06T00:20:55;94459.81;;;-0.03;100.00
11099;BME280;12223;42.650;23.364;2023-04-06T00:23:22;94462.88;;;0.00;100.00
11099;BME280;12223;42.650;23.364;2023-04-06T00:25:49;94425.28;;;-0.28;100.00
11099;BME280;12223;42.650;23.364;2023-04-06T00:28:16;94454.00;;;-0.13;100.00
11099;BME280;12223;42.650;23.364;2023-04-06T00:30:43;94455.28;;;-0.01;100.00
11099;BME280;12223;42.650;23.364;2023-04-06T00:33:10;94452.69;;;-0.09;100.00
11099;BME280;12223;42.650;23.364;2023-04-06T00:35:38;94449.09;;;-0.16;100.00
11099;BME280;12223;42.650;23.364;2023-04-06T00:38:05;94452.53;;;-0.08;100.00
11099;BME280;12223;42.650;23.364;2023-04-06T00:40:32;94441.31;;;-0.16;100.00
11099;BME280;12223;42.650;23.364;2023-04-06T00:43:00;94447.31;;;-0.16;100.00
11099;BME280;12223;42.650;23.364;2023-04-06T00:45:27;94447.34;;;-0.08;100.00
11099;BME280;12223;42.650;23.364;2023-04-06T00:47:54;94452.19;;;-0.05;100.00
11099;BME280;12223;42.650;23.364;2023-04-06T00:50:22;94434.84;;;0.04;100.00
11099;BME280;12223;42.650;23.364;2023-04-06T00:52:51;94437.75;;;0.01;100.00
11099;BME280;12223;42.650;23.364;2023-04-06T00:55:18;94442.47;;;-0.03;100.00
11099;BME280;12223;42.650;23.364;2023-04-06T00:57:45;94446.66;;;0.07;100.00
11099;BME280;12223;42.650;23.364;2023-04-06T01:00:13;94436.13;;;0.08;100.00
11099;BME280;12223;42.650;23.364;2023-04-06T01:02:40;94444.25;;;-0.19;100.00
11099;BME280;12223;42.650;23.364;2023-04-06T01:05:07;94456.25;;;-0.02;100.00
11099;BME280;12223;42.650;23.364;2023-04-06T01:07:34;94445.22;;;0.12;100.00
11099;BME280;12223;42.650;23.364;2023-04-06T01:10:08;94435.97;;;0.10;100.00
11099;BME280;12223;42.650;23.364;2023-04-06T01:12:35;94440.50;;;0.24;100.00
11099;BME280;12223;42.650;23.364;2023-04-06T01:15:03;94435.97;;;0.18;100.00
11099;BME280;12223;42.650;23.364;2023-04-06T01:17:31;94435.63;;;0.21;100.00
11099;BME280;12223;42.650;23.364;2023-04-06T01:19:58;94428.50;;;-0.02;100.00
11099;BME280;12223;42.650;23.364;2023-04-06T01:22:26;94420.41;;;-0.07;100.00
11099;BME280;12223;42.650;23.364;2023-04-06T01:24:53;94427.69;;;-0.02;100.00
11099;BME280;12223;42.650;23.364;2023-04-06T01:27:20;94428.34;;;0.00;100.00
11099;BME280;12223;42.650;23.364;2023-04-06T01:29:47;94425.09;;;0.06;100.00
11099;BME280;12223;42.650;23.364;2023-04-06T01:32:14;94421.50;;;0.07;100.00
11099;BME280;12223;42.650;23.364;2023-04-06T01:34:41;94424.09;;;0.15;100.00
11099;BME280;12223;42.650;23.364;2023-04-06T01:37:08;94420.84;;;0.21;100.00
11099;BME280;12223;42.650;23.364;2023-04-06T01:39:36;94418.25;;;0.29;100.00
11099;BME280;12223;42.650;23.364;2023-04-06T01:42:03;94425.88;;;0.31;100.00
11099;BME280;12223;42.650;23.364;2023-04-06T01:44:30;94422.28;;;0.32;100.00
11099;BME280;12223;42.650;23.364;2023-04-06T01:46:56;94412.38;;;0.44;100.00
11099;BME280;12223;42.650;23.364;2023-04-06T01:49:23;94420.31;;;0.50;100.00
11099;BME280;12223;42.650;23.364;2023-04-06T01:51:50;94371.06;;;0.10;100.00
11099;BME280;12223;42.650;23.364;2023-04-06T01:54:17;94413.66;;;0.48;100.00
11099;BME280;12223;42.650;23.364;2023-04-06T01:56:45;94410.72;;;0.51;100.00
11099;BME280;12223;42.650;23.364;2023-04-06T01:59:12;94401.63;;;0.55;100.00
11099;BME280;12223;42.650;23.364;2023-04-06T02:01:41;94405.50;;;0.51;100.00
11099;BME280;12223;42.650;23.364;2023-04-06T02:04:08;94395.31;;;0.49;100.00
11099;BME280;12223;42.650;23.364;2023-04-06T02:06:34;94398.22;;;0.46;100.00
11099;BME280;12223;42.650;23.364;2023-04-06T02:09:01;94394.81;;;0.54;100.00
11099;BME280;12223;42.650;23.364;2023-04-06T02:11:28;94391.88;;;0.57;100.00
11099;BME280;12223;42.650;23.364;2023-04-06T02:13:57;94397.69;;;0.59;100.00
11099;BME280;12223;42.650;23.364;2023-04-06T02:16:26;94407.78;;;0.62;100.00
11099;BME280;12223;42.650;23.364;2023-04-06T02:18:53;94399.78;;;0.63;100.00
11099;BME280;12223;42.650;23.364;2023-04-06T02:21:19;94391.69;;;0.58;100.00
11099;BME280;12223;42.650;23.364;2023-04-06T02:23:46;94400.66;;;0.56;100.00
11099;BME280;12223;42.650;23.364;2023-04-06T02:26:14;94396.72;;;0.60;100.00
11099;BME280;12223;42.650;23.364;2023-04-06T02:28:41;94392.66;;;0.65;100.00
11099;BME280;12223;42.650;23.364;2023-04-06T02:31:09;94400.56;;;0.72;100.00
11099;BME280;12223;42.650;23.364;2023-04-06T02:33:36;94387.94;;;0.69;100.00
11099;BME280;12223;42.650;23.364;2023-04-06T02:36:03;94390.22;;;0.64;100.00
11099;BME280;12223;42.650;23.364;2023-04-06T02:38:30;94396.72;;;0.60;100.00
11099;BME280;12223;42.650;23.364;2023-04-06T02:40:57;94394.41;;;0.73;100.00
11099;BME280;12223;42.650;23.364;2023-04-06T02:43:24;94395.41;;;0.64;100.00
11099;BME280;12223;42.650;23.364;2023-04-06T02:45:51;94389.22;;;0.65;100.00
11099;BME280;12223;42.650;23.364;2023-04-06T02:48:19;94382.91;;;0.59;100.00
11099;BME280;12223;42.650;23.364;2023-04-06T02:50:46;94394.13;;;0.60;100.00
11099;BME280;12223;42.650;23.364;2023-04-06T02:53:13;94270.53;;;-0.13;100.00
11099;BME280;12223;42.650;23.364;2023-04-06T02:55:39;94384.69;;;0.67;100.00
11099;BME280;12223;42.650;23.364;2023-04-06T02:58:06;94391.22;;;0.63;100.00
11099;BME280;12223;42.650;23.364;2023-04-06T03:00:33;94394.34;;;0.50;100.00
11099;BME280;12223;42.650;23.364;2023-04-06T03:03:01;94384.72;;;0.51;100.00
11099;BME280;12223;42.650;23.364;2023-04-06T03:05:29;94375.28;;;0.58;100.00
11099;BME280;12223;42.650;23.364;2023-04-06T03:07:56;94379.41;;;0.44;100.00
11099;BME280;12223;42.650;23.364;2023-04-06T03:10:23;94390.25;;;0.56;100.00
11099;BME280;12223;42.650;23.364;2023-04-06T03:12:50;94392.19;;;0.62;100.00
11099;BME280;12223;42.650;23.364;2023-04-06T03:15:17;94341.31;;;0.28;100.00
11099;BME280;12223;42.650;23.364;2023-04-06T03:17:43;94394.91;;;0.68;100.00
11099;BME280;12223;42.650;23.364;2023-04-06T03:20:11;94386.34;;;0.60;100.00
11099;BME280;12223;42.650;23.364;2023-04-06T03:22:39;94388.91;;;0.68;100.00
11099;BME280;12223;42.650;23.364;2023-04-06T03:25:07;94383.44;;;0.47;100.00
11099;BME280;12223;42.650;23.364;2023-04-06T03:27:33;94380.16;;;0.61;100.00
11099;BME280;12223;42.650;23.364;2023-04-06T03:30:00;94387.59;;;0.64;100.00
11099;BME280;12223;42.650;23.364;2023-04-06T03:32:27;94391.84;;;0.65;100.00
11099;BME280;12223;42.650;23.364;2023-04-06T03:34:54;94388.13;;;0.59;100.00
11099;BME280;12223;42.650;23.364;2023-04-06T03:37:21;94381.28;;;0.58;100.00
11099;BME280;12223;42.650;23.364;2023-04-06T03:39:49;94378.38;;;0.61;100.00
11099;BME280;12223;42.650;23.364;2023-04-06T03:42:16;94391.84;;;0.65;100.00
11099;BME280;12223;42.650;23.364;2023-04-06T03:44:43;94387.31;;;0.59;100.00
11099;BME280;12223;42.650;23.364;2023-04-06T03:47:10;94381.25;;;0.74;100.00
11099;BME280;12223;42.650;23.364;2023-04-06T03:49:36;94373.91;;;0.78;100.00
11099;BME280;12223;42.650;23.364;2023-04-06T03:52:03;94375.88;;;0.76;100.00
11099;BME280;12223;42.650;23.364;2023-04-06T03:54:30;94380.28;;;0.75;100.00
11099;BME280;12223;42.650;23.364;2023-04-06T03:56:59;94380.75;;;0.79;100.00
11099;BME280;12223;42.650;23.364;2023-04-06T03:59:26;94378.94;;;0.79;100.00
11099;BME280;12223;42.650;23.364;2023-04-06T04:01:52;94370.88;;;0.66;100.00
11099;BME280;12223;42.650;23.364;2023-04-06T04:04:19;94374.00;;;0.62;100.00
11099;BME280;12223;42.650;23.364;2023-04-06T04:06:46;94371.19;;;0.71;100.00
11099;BME280;12223;42.650;23.364;2023-04-06T04:09:13;94365.56;;;0.60;100.00
11099;BME280;12223;42.650;23.364;2023-04-06T04:11:40;94373.31;;;0.68;100.00
11099;BME280;12223;42.650;23.364;2023-04-06T04:14:08;94381.41;;;0.73;100.00
11099;BME280;12223;42.650;23.364;2023-04-06T04:16:35;94379.50;;;0.67;100.00
11099;BME280;12223;42.650;23.364;2023-04-06T04:19:02;94373.63;;;0.73;100.00
11099;BME280;12223;42.650;23.364;2023-04-06T04:21:29;94379.72;;;0.88;100.00
11099;BME280;12223;42.650;23.364;2023-04-06T04:23:57;94372.81;;;0.64;100.00
11099;BME280;12223;42.650;23.364;2023-04-06T04:26:24;94378.28;;;0.77;100.00
11099;BME280;12223;42.650;23.364;2023-04-06T04:28:51;94376.81;;;0.83;100.00
11099;BME280;12223;42.650;23.364;2023-04-06T04:31:19;94384.25;;;0.94;100.00
11099;BME280;12223;42.650;23.364;2023-04-06T04:33:48;94380.28;;;1.06;100.00
11099;BME280;12223;42.650;23.364;2023-04-06T04:36:15;94368.78;;;1.01;100.00
11099;BME280;12223;42.650;23.364;2023-04-06T04:38:42;94379.47;;;1.06;100.00
11099;BME280;12223;42.650;23.364;2023-04-06T04:41:09;94376.72;;;1.07;100.00
11099;BME280;12223;42.650;23.364;2023-04-06T04:43:35;94376.88;;;1.06;100.00
11099;BME280;12223;42.650;23.364;2023-04-06T04:46:03;94380.69;;;1.18;100.00
11099;BME280;12223;42.650;23.364;2023-04-06T04:48:31;94375.34;;;1.19;100.00
11099;BME280;12223;42.650;23.364;2023-04-06T04:50:58;94388.16;;;1.21;100.00
11099;BME280;12223;42.650;23.364;2023-04-06T04:53:25;94376.16;;;1.20;100.00
11099;BME280;12223;42.650;23.364;2023-04-06T04:55:52;94380.47;;;1.28;100.00
11099;BME280;12223;42.650;23.364;2023-04-06T04:58:19;94385.50;;;1.29;100.00
11099;BME280;12223;42.650;23.364;2023-04-06T05:00:46;94387.47;;;1.27;100.00
11099;BME280;12223;42.650;23.364;2023-04-06T05:03:20;94381.75;;;1.32;100.00
11099;BME280;12223;42.650;23.364;2023-04-06T05:05:50;94383.78;;;1.44;100.00
11099;BME280;12223;42.650;23.364;2023-04-06T05:08:16;94368.44;;;1.27;100.00
11099;BME280;12223;42.650;23.364;2023-04-06T05:10:43;94393.63;;;1.57;100.00
11099;BME280;12223;42.650;23.364;2023-04-06T05:13:12;94388.09;;;1.52;100.00
11099;BME280;12223;42.650;23.364;2023-04-06T05:15:38;94385.22;;;1.47;100.00
11099;BME280;12223;42.650;23.364;2023-04-06T05:18:06;94378.88;;;1.49;100.00
11099;BME280;12223;42.650;23.364;2023-04-06T05:20:35;94390.66;;;1.60;100.00
11099;BME280;12223;42.650;23.364;2023-04-06T05:23:03;94393.03;;;1.47;100.00
11099;BME280;12223;42.650;23.364;2023-04-06T05:25:30;94388.47;;;1.49;100.00
11099;BME280;12223;42.650;23.364;2023-04-06T05:27:58;94389.41;;;1.56;100.00
11099;BME280;12223;42.650;23.364;2023-04-06T05:30:25;94393.91;;;1.62;100.00
11099;BME280;12223;42.650;23.364;2023-04-06T05:32:52;94399.06;;;1.70;100.00
11099;BME280;12223;42.650;23.364;2023-04-06T05:35:19;94394.59;;;1.56;100.00
11099;BME280;12223;42.650;23.364;2023-04-06T05:37:45;94395.75;;;1.76;100.00
11099;BME280;12223;42.650;23.364;2023-04-06T05:40:14;94399.19;;;1.77;100.00
11099;BME280;12223;42.650;23.364;2023-04-06T05:42:41;94392.16;;;1.77;100.00
11099;BME280;12223;42.650;23.364;2023-04-06T05:45:09;94397.66;;;1.59;100.00
11099;BME280;12223;42.650;23.364;2023-04-06T05:47:42;94395.88;;;1.60;100.00
11099;BME280;12223;42.650;23.364;2023-04-06T05:50:09;94390.66;;;1.83;100.00
11099;BME280;12223;42.650;23.364;2023-04-06T05:52:36;94389.44;;;1.93;100.00
11099;BME280;12223;42.650;23.364;2023-04-06T05:55:04;94388.81;;;2.06;100.00
11099;BME280;12223;42.650;23.364;2023-04-06T05:57:32;94379.50;;;2.12;100.00
11099;BME280;12223;42.650;23.364;2023-04-06T05:59:59;94381.31;;;1.51;100.00
11099;BME280;12223;42.650;23.364;2023-04-06T06:02:26;94379.72;;;1.65;100.00
11099;BME280;12223;42.650;23.364;2023-04-06T06:04:53;94375.75;;;1.77;100.00
11099;BME280;12223;42.650;23.364;2023-04-06T06:07:20;94384.50;;;1.98;100.00
11099;BME280;12223;42.650;23.364;2023-04-06T06:09:47;94381.13;;;1.75;100.00
11099;BME280;12223;42.650;23.364;2023-04-06T06:12:14;94383.50;;;1.99;100.00
11099;BME280;12223;42.650;23.364;2023-04-06T06:14:42;94376.28;;;2.39;100.00
11099;BME280;12223;42.650;23.364;2023-04-06T06:17:09;94385.13;;;2.53;100.00
11099;BME280;12223;42.650;23.364;2023-04-06T06:19:36;94382.69;;;2.51;100.00
11099;BME280;12223;42.650;23.364;2023-04-06T06:22:02;94372.69;;;2.69;100.00
11099;BME280;12223;42.650;23.364;2023-04-06T06:24:30;94383.75;;;2.57;100.00
11099;BME280;12223;42.650;23.364;2023-04-06T06:26:57;94383.03;;;2.77;99.52
11099;BME280;12223;42.650;23.364;2023-04-06T06:29:25;94384.69;;;3.00;100.00
11099;BME280;12223;42.650;23.364;2023-04-06T06:31:53;94382.03;;;3.29;97.45
11099;BME280;12223;42.650;23.364;2023-04-06T06:34:20;94378.56;;;3.22;95.37
11099;BME280;12223;42.650;23.364;2023-04-06T06:36:46;94378.47;;;3.15;97.28
11099;BME280;12223;42.650;23.364;2023-04-06T06:39:13;94376.81;;;2.78;98.71
11099;BME280;12223;42.650;23.364;2023-04-06T06:41:40;94385.50;;;3.36;100.00
11099;BME280;12223;42.650;23.364;2023-04-06T06:44:07;94385.25;;;3.31;95.88
11099;BME280;12223;42.650;23.364;2023-04-06T06:46:34;94381.16;;;3.22;96.57
11099;BME280;12223;42.650;23.364;2023-04-06T06:49:02;94386.50;;;3.35;94.25
11099;BME280;12223;42.650;23.364;2023-04-06T06:51:29;94379.63;;;4.40;87.97
11099;BME280;12223;42.650;23.364;2023-04-06T06:53:56;94380.19;;;4.36;82.11
11099;BME280;12223;42.650;23.364;2023-04-06T06:56:23;94388.16;;;3.57;86.84
11099;BME280;12223;42.650;23.364;2023-04-06T06:58:51;94389.75;;;3.37;93.27
11099;BME280;12223;42.650;23.364;2023-04-06T07:01:17;94378.53;;;4.63;88.96
11099;BME280;12223;42.650;23.364;2023-04-06T07:03:44;94384.03;;;4.68;81.30
11099;BME280;12223;42.650;23.364;2023-04-06T07:06:12;94367.41;;;4.48;82.57
11099;BME280;12223;42.650;23.364;2023-04-06T07:08:39;94379.41;;;4.14;85.62
11099;BME280;12223;42.650;23.364;2023-04-06T07:11:06;94281.03;;;3.72;82.15
11099;BME280;12223;42.650;23.364;2023-04-06T07:13:33;94379.16;;;3.24;89.49
11099;BME280;12223;42.650;23.364;2023-04-06T07:16:00;94380.94;;;3.38;89.77
11099;BME280;12223;42.650;23.364;2023-04-06T07:18:27;94350.88;;;3.06;98.26
11099;BME280;12223;42.650;23.364;2023-04-06T07:20:53;94376.53;;;3.39;94.91
11099;BME280;12223;42.650;23.364;2023-04-06T07:23:22;94376.69;;;4.01;89.50
11099;BME280;12223;42.650;23.364;2023-04-06T07:25:49;94376.50;;;4.02;86.15
11099;BME280;12223;42.650;23.364;2023-04-06T07:28:19;94375.41;;;4.18;83.45
11099;BME280;12223;42.650;23.364;2023-04-06T07:30:45;94367.03;;;4.92;79.34
11099;BME280;12223;42.650;23.364;2023-04-06T07:33:12;94372.41;;;5.24;71.75
11099;BME280;12223;42.650;23.364;2023-04-06T07:35:39;94373.28;;;4.28;77.34
11099;BME280;12223;42.650;23.364;2023-04-06T07:38:06;94383.94;;;4.27;76.96
11099;BME280;12223;42.650;23.364;2023-04-06T07:40:34;94375.03;;;3.93;81.19
11099;BME280;12223;42.650;23.364;2023-04-06T07:43:01;94368.44;;;3.55;85.62
11099;BME280;12223;42.650;23.364;2023-04-06T07:45:28;94377.56;;;3.87;82.60
11099;BME280;12223;42.650;23.364;2023-04-06T07:47:55;94368.59;;;3.47;84.35
11099;BME280;12223;42.650;23.364;2023-04-06T07:50:22;94372.81;;;3.12;90.16
11099;BME280;12223;42.650;23.364;2023-04-06T07:52:49;94367.94;;;3.87;90.08
11099;BME280;12223;42.650;23.364;2023-04-06T07:55:16;94367.16;;;3.66;87.13
11099;BME280;12223;42.650;23.364;2023-04-06T07:57:44;94371.09;;;3.19;89.06
11099;BME280;12223;42.650;23.364;2023-04-06T08:00:12;94367.38;;;3.28;91.49
11099;BME280;12223;42.650;23.364;2023-04-06T08:02:39;94358.88;;;3.83;90.76
11099;BME280;12223;42.650;23.364;2023-04-06T08:05:06;94366.72;;;3.83;87.47
11099;BME280;12223;42.650;23.364;2023-04-06T08:07:33;94361.81;;;4.57;86.25
11099;BME280;12223;42.650;23.364;2023-04-06T08:10:01;94360.63;;;4.60;83.87
11099;BME280;12223;42.650;23.364;2023-04-06T08:12:27;94367.53;;;4.12;82.58
11099;BME280;12223;42.650;23.364;2023-04-06T08:14:56;94361.09;;;4.35;84.85
11099;BME280;12223;42.650;23.364;2023-04-06T08:17:23;94362.88;;;5.10;78.99
11099;BME280;12223;42.650;23.364;2023-04-06T08:19:51;94357.13;;;5.41;75.08
11099;BME280;12223;42.650;23.364;2023-04-06T08:22:17;94368.69;;;5.73;72.25
11099;BME280;12223;42.650;23.364;2023-04-06T08:24:44;94369.47;;;5.67;69.32
11099;BME280;12223;42.650;23.364;2023-04-06T08:27:11;94366.00;;;5.47;69.46
11099;BME280;12223;42.650;23.364;2023-04-06T08:29:39;94350.94;;;5.62;70.04
11099;BME280;12223;42.650;23.364;2023-04-06T08:32:07;94363.53;;;6.13;66.01
11099;BME280;12223;42.650;23.364;2023-04-06T08:34:34;94375.81;;;6.32;64.28
11099;BME280;12223;42.650;23.364;2023-04-06T08:37:01;94368.69;;;6.59;62.54
11099;BME280;12223;42.650;23.364;2023-04-06T08:39:28;94360.28;;;6.24;60.90
11099;BME280;12223;42.650;23.364;2023-04-06T08:41:56;94362.19;;;5.43;63.74
11099;BME280;12223;42.650;23.364;2023-04-06T08:44:25;94371.38;;;6.06;64.77
11099;BME280;12223;42.650;23.364;2023-04-06T08:46:52;94367.13;;;6.44;59.04
11099;BME280;12223;42.650;23.364;2023-04-06T08:49:20;94381.22;;;6.76;57.47
11099;BME280;12223;42.650;23.364;2023-04-06T08:51:48;94370.94;;;6.68;56.03
11099;BME280;12223;42.650;23.364;2023-04-06T08:54:15;94319.28;;;6.49;56.17
11099;BME280;12223;42.650;23.364;2023-04-06T08:56:43;94347.28;;;6.81;55.96
11099;BME280;12223;42.650;23.364;2023-04-06T08:59:10;94357.78;;;7.33;55.47
11099;BME280;12223;42.650;23.364;2023-04-06T09:01:39;94364.84;;;7.39;54.25
11099;BME280;12223;42.650;23.364;2023-04-06T09:04:07;94355.72;;;6.90;54.37
11099;BME280;12223;42.650;23.364;2023-04-06T09:06:37;94371.97;;;6.15;56.93
11099;BME280;12223;42.650;23.364;2023-04-06T09:09:05;94357.84;;;6.16;57.29
11099;BME280;12223;42.650;23.364;2023-04-06T09:11:43;94360.22;;;5.84;58.39
11099;BME280;12223;42.650;23.364;2023-04-06T09:14:11;94369.16;;;5.22;59.61
11099;BME280;12223;42.650;23.364;2023-04-06T09:16:42;94326.06;;;5.18;60.71
11099;BME280;12223;42.650;23.364;2023-04-06T09:19:10;94350.91;;;5.49;61.05
11099;BME280;12223;42.650;23.364;2023-04-06T09:21:38;94349.78;;;6.04;59.51
11099;BME280;12223;42.650;23.364;2023-04-06T09:24:07;94351.78;;;6.41;58.77
11099;BME280;12223;42.650;23.364;2023-04-06T09:26:45;94363.06;;;6.68;57.46
11099;BME280;12223;42.650;23.364;2023-04-06T09:29:22;94350.09;;;6.86;56.45
11099;BME280;12223;42.650;23.364;2023-04-06T09:31:51;94343.56;;;6.96;56.28
11099;BME280;12223;42.650;23.364;2023-04-06T09:34:22;94340.09;;;6.51;56.20
11099;BME280;12223;42.650;23.364;2023-04-06T09:36:52;94331.44;;;6.24;57.29
11099;BME280;12223;42.650;23.364;2023-04-06T09:39:20;94348.53;;;6.53;57.00
11099;BME280;12223;42.650;23.364;2023-04-06T09:41:50;94357.00;;;6.68;55.73
11099;BME280;12223;42.650;23.364;2023-04-06T09:44:17;94348.06;;;6.89;55.00
11099;BME280;12223;42.650;23.364;2023-04-06T09:46:45;94345.69;;;6.74;54.57
11099;BME280;12223;42.650;23.364;2023-04-06T09:49:13;94346.47;;;6.81;54.84
11099;BME280;12223;42.650;23.364;2023-04-06T09:51:42;94347.34;;;6.42;55.13
11099;BME280;12223;42.650;23.364;2023-04-06T09:54:17;94341.47;;;6.53;55.39
11099;BME280;12223;42.650;23.364;2023-04-06T09:56:46;94341.09;;;6.36;55.45
11099;BME280;12223;42.650;23.364;2023-04-06T09:59:18;94343.56;;;5.98;54.78
11099;BME280;12223;42.650;23.364;2023-04-06T10:01:51;94361.47;;;5.88;56.52
11099;BME280;12223;42.650;23.364;2023-04-06T10:04:27;94349.78;;;5.04;58.46
11099;BME280;12223;42.650;23.364;2023-04-06T10:07:02;94361.44;;;5.75;57.70
11099;BME280;12223;42.650;23.364;2023-04-06T10:09:31;94356.25;;;6.08;56.28
11099;BME280;12223;42.650;23.364;2023-04-06T10:12:03;94352.41;;;6.43;54.71
11099;BME280;12223;42.650;23.364;2023-04-06T10:14:31;94358.66;;;6.49;53.61
11099;BME280;12223;42.650;23.364;2023-04-06T10:16:59;94355.16;;;6.81;54.46
11099;BME280;12223;42.650;23.364;2023-04-06T10:19:30;94343.06;;;6.74;52.42
11099;BME280;12223;42.650;23.364;2023-04-06T10:21:59;94349.28;;;6.86;52.86
11099;BME280;12223;42.650;23.364;2023-04-06T10:24:30;94345.31;;;7.15;52.07
11099;BME280;12223;42.650;23.364;2023-04-06T10:26:58;94347.34;;;6.35;51.85
11099;BME280;12223;42.650;23.364;2023-04-06T10:29:26;94337.78;;;6.80;52.76
11099;BME280;12223;42.650;23.364;2023-04-06T10:31:53;94356.31;;;6.92;51.58
11099;BME280;12223;42.650;23.364;2023-04-06T10:34:21;94336.28;;;5.94;52.92
11099;BME280;12223;42.650;23.364;2023-04-06T10:36:49;94340.06;;;6.57;52.82
11099;BME280;12223;42.650;23.364;2023-04-06T10:39:24;94342.28;;;5.61;54.12
11099;BME280;12223;42.650;23.364;2023-04-06T10:41:53;94336.00;;;5.43;54.68
11099;BME280;12223;42.650;23.364;2023-04-06T10:44:21;94347.22;;;5.23;54.87
11099;BME280;12223;42.650;23.364;2023-04-06T10:46:55;94346.75;;;5.07;56.69
11099;BME280;12223;42.650;23.364;2023-04-06T10:49:22;94344.44;;;5.45;55.04
11099;BME280;12223;42.650;23.364;2023-04-06T10:51:52;94204.97;;;4.16;56.25
11099;BME280;12223;42.650;23.364;2023-04-06T10:54:21;94342.06;;;5.63;56.88
11099;BME280;12223;42.650;23.364;2023-04-06T10:56:48;94339.31;;;6.11;55.28
11099;BME280;12223;42.650;23.364;2023-04-06T10:59:20;94343.63;;;5.38;54.98
11099;BME280;12223;42.650;23.364;2023-04-06T11:01:49;94332.91;;;5.19;57.13
11099;BME280;12223;42.650;23.364;2023-04-06T11:04:16;94350.75;;;5.03;57.27
11099;BME280;12223;42.650;23.364;2023-04-06T11:06:46;94324.66;;;4.75;59.32
11099;BME280;12223;42.650;23.364;2023-04-06T11:09:23;94331.38;;;5.64;57.59
11099;BME280;12223;42.650;23.364;2023-04-06T11:11:51;94332.00;;;5.60;56.31
11099;BME280;12223;42.650;23.364;2023-04-06T11:14:20;94329.63;;;6.04;56.63
11099;BME280;12223;42.650;23.364;2023-04-06T11:16:47;94330.00;;;6.28;56.43
11099;BME280;12223;42.650;23.364;2023-04-06T11:19:15;94327.56;;;5.54;56.37
11099;BME280;12223;42.650;23.364;2023-04-06T11:21:43;94315.06;;;5.56;56.62
11099;BME280;12223;42.650;23.364;2023-04-06T11:24:14;94315.06;;;6.48;54.08
11099;BME280;12223;42.650;23.364;2023-04-06T11:26:42;94313.44;;;6.47;52.50
11099;BME280;12223;42.650;23.364;2023-04-06T11:29:10;94328.63;;;6.19;54.29
11099;BME280;12223;42.650;23.364;2023-04-06T11:31:40;94322.53;;;5.72;55.43
11099;BME280;12223;42.650;23.364;2023-04-06T11:34:13;94295.94;;;5.88;56.00
11099;BME280;12223;42.650;23.364;2023-04-06T11:36:43;94311.84;;;6.26;54.36
11099;BME280;12223;42.650;23.364;2023-04-06T11:39:10;94243.97;;;5.92;53.94
11099;BME280;12223;42.650;23.364;2023-04-06T11:41:37;94274.59;;;5.98;54.20
11099;BME280;12223;42.650;23.364;2023-04-06T11:44:05;94309.28;;;5.93;54.68
11099;BME280;12223;42.650;23.364;2023-04-06T11:46:32;94309.06;;;5.88;54.76
11099;BME280;12223;42.650;23.364;2023-04-06T11:49:01;94295.75;;;5.90;54.90
11099;BME280;12223;42.650;23.364;2023-04-06T11:51:28;94309.59;;;5.51;55.77
11099;BME280;12223;42.650;23.364;2023-04-06T11:53:55;94308.66;;;6.11;55.88
11099;BME280;12223;42.650;23.364;2023-04-06T11:56:26;94308.09;;;6.86;52.75
11099;BME280;12223;42.650;23.364;2023-04-06T11:58:57;94297.31;;;6.50;52.78
11099;BME280;12223;42.650;23.364;2023-04-06T12:01:45;94300.97;;;5.70;53.04
11099;BME280;12223;42.650;23.364;2023-04-06T12:04:13;94305.59;;;5.48;55.38
11099;BME280;12223;42.650;23.364;2023-04-06T12:06:40;94306.44;;;5.88;55.13
11099;BME280;12223;42.650;23.364;2023-04-06T12:09:07;94317.09;;;5.74;55.61
11099;BME280;12223;42.650;23.364;2023-04-06T12:11:34;94306.41;;;5.55;56.13
11099;BME280;12223;42.650;23.364;2023-04-06T12:14:01;94308.66;;;5.98;55.36
11099;BME280;12223;42.650;23.364;2023-04-06T12:16:30;94296.13;;;5.74;54.74
11099;BME280;12223;42.650;23.364;2023-04-06T12:18:57;94297.56;;;6.02;54.02
11099;BME280;12223;42.650;23.364;2023-04-06T12:21:26;94294.34;;;5.81;55.20
11099;BME280;12223;42.650;23.364;2023-04-06T12:23:53;94298.78;;;5.93;55.54
11099;BME280;12223;42.650;23.364;2023-04-06T12:26:20;94295.53;;;6.24;55.10
11099;BME280;12223;42.650;23.364;2023-04-06T12:28:47;94306.66;;;6.00;55.43
11099;BME280;12223;42.650;23.364;2023-04-06T12:31:15;94317.25;;;5.39;56.97
11099;BME280;12223;42.650;23.364;2023-04-06T12:33:42;94301.13;;;5.29;57.41
11099;BME280;12223;42.650;23.364;2023-04-06T12:36:11;94302.16;;;5.48;57.65
11099;BME280;12223;42.650;23.364;2023-04-06T12:38:40;94297.75;;;5.68;56.45
11099;BME280;12223;42.650;23.364;2023-04-06T12:41:07;94298.75;;;5.67;56.18
11099;BME280;12223;42.650;23.364;2023-04-06T12:43:34;94246.97;;;5.49;55.65
11099;BME280;12223;42.650;23.364;2023-04-06T12:46:01;94296.53;;;5.64;55.00
11099;BME280;12223;42.650;23.364;2023-04-06T12:48:28;94294.88;;;5.23;55.70
11099;BME280;12223;42.650;23.364;2023-04-06T12:50:57;94288.34;;;4.93;57.91
11099;BME280;12223;42.650;23.364;2023-04-06T12:53:24;94284.25;;;4.77;57.68
11099;BME280;12223;42.650;23.364;2023-04-06T12:55:54;94285.50;;;4.95;58.02
11099;BME280;12223;42.650;23.364;2023-04-06T12:58:21;94268.03;;;5.08;56.73